Time;durP1;ratioP1;P1;durP2;ratioP2;P2;SDS_P1;SDS_P2;PMS_P1;PMS_P2;Temp;Humidity;BMP_temperature;BMP_pressure;BME280_temperature;BME280_humidity;BME280_pressure;Samples;Min_cycle;Max_cycle;Signal;HPM_P1;HPM_P2
2023/06/02 00:01:03;;;;;;;15.57;3.47;;;10.50;99.90;;;;;;5018992;28;20055;-71
2023/06/02 00:03:34;;;;;;;19.45;2.95;;;10.50;99.90;;;;;;5019520;28;20128;-71
2023/06/02 00:06:08;;;;;;;22.13;2.83;;;10.50;99.90;;;;;;5020030;28;20548;-71
2023/06/02 00:08:38;;;;;;;20.60;2.72;;;10.50;99.90;;;;;;5018236;28;20052;-72
2023/06/02 00:11:04;;;;;;;19.92;2.85;;;10.50;99.90;;;;;;5018960;28;20042;-72
2023/06/02 00:13:30;;;;;;;21.02;2.58;;;10.40;99.90;;;;;;5021685;28;20710;-72
2023/06/02 00:15:55;;;;;;;16.50;2.97;;;10.40;99.90;;;;;;5020752;28;20073;-72
2023/06/02 00:18:22;;;;;;;16.67;2.85;;;10.40;99.90;;;;;;5022158;28;20045;-72
2023/06/02 00:20:48;;;;;;;18.05;2.78;;;10.40;99.90;;;;;;5022770;28;20057;-72
2023/06/02 00:23:14;;;;;;;19.00;2.72;;;10.50;99.90;;;;;;5022451;28;20041;-72
2023/06/02 00:25:40;;;;;;;19.42;2.78;;;10.40;99.90;;;;;;5022551;28;20041;-71
2023/06/02 00:28:06;;;;;;;18.88;2.50;;;10.50;99.90;;;;;;5023037;28;20049;-71
2023/06/02 00:30:33;;;;;;;18.38;2.53;;;10.50;99.90;;;;;;5022315;28;20053;-72
2023/06/02 00:33:01;;;;;;;19.15;2.72;;;10.40;99.90;;;;;;5021777;28;20348;-72
2023/06/02 00:35:27;;;;;;;16.58;2.33;;;10.40;99.90;;;;;;5039975;28;20060;-72
2023/06/02 00:37:54;;;;;;;14.50;2.72;;;10.50;99.90;;;;;;5037168;28;20034;-72
2023/06/02 00:40:21;;;;;;;14.20;2.78;;;10.40;99.90;;;;;;5022031;28;20064;-72
2023/06/02 00:42:46;;;;;;;15.13;2.63;;;10.40;99.90;;;;;;5018212;28;20037;-71
2023/06/02 00:45:12;;;;;;;20.88;3.63;;;10.50;99.90;;;;;;5006060;28;20050;-72
2023/06/02 00:47:38;;;;;;;24.20;3.65;;;10.40;99.90;;;;;;5004538;28;20545;-72
2023/06/02 00:50:04;;;;;;;20.30;3.72;;;10.70;99.90;;;;;;5023328;28;20053;-72
2023/06/02 00:52:33;;;;;;;16.73;2.30;;;10.40;99.90;;;;;;5018029;28;20477;-71
2023/06/02 00:55:01;;;;;;;14.98;2.60;;;10.40;99.90;;;;;;5018993;28;20037;-72
2023/06/02 00:57:28;;;;;;;21.73;3.30;;;10.40;99.90;;;;;;5037819;28;20045;-71
2023/06/02 00:59:57;;;;;;;19.83;2.85;;;10.40;99.90;;;;;;5023044;28;20146;-72
2023/06/02 01:02:23;;;;;;;15.52;2.72;;;10.30;99.90;;;;;;5031596;28;20049;-72
2023/06/02 01:04:51;;;;;;;21.13;3.17;;;10.40;99.90;;;;;;5019344;28;20143;-72
2023/06/02 01:07:23;;;;;;;19.02;2.67;;;10.40;99.90;;;;;;5024397;28;20050;-72
2023/06/02 01:09:55;;;;;;;13.07;2.40;;;10.30;99.90;;;;;;5010426;28;20181;-72
2023/06/02 01:12:22;;;;;;;13.18;2.58;;;10.30;99.90;;;;;;5003489;28;20057;-71
2023/06/02 01:14:48;;;;;;;19.50;3.00;;;10.30;99.90;;;;;;5020591;28;20053;-71
2023/06/02 01:17:15;;;;;;;16.63;2.88;;;10.30;99.90;;;;;;5018001;28;20046;-72
2023/06/02 01:19:41;;;;;;;16.58;2.55;;;10.30;99.90;;;;;;5019360;28;20142;-71
2023/06/02 01:22:10;;;;;;;16.88;2.72;;;10.30;99.90;;;;;;5021613;28;20191;-71
2023/06/02 01:24:38;;;;;;;23.40;2.90;;;10.30;99.90;;;;;;5038099;28;20042;-71
2023/06/02 01:27:08;;;;;;;16.27;2.65;;;10.30;99.90;;;;;;5031470;28;20045;-72
2023/06/02 01:29:35;;;;;;;19.30;3.33;;;10.30;99.90;;;;;;5021023;28;20045;-71
2023/06/02 01:32:08;;;;;;;16.77;2.78;;;10.30;99.90;;;;;;5019073;28;20536;-71
2023/06/02 01:35:02;;;;;;;15.27;2.50;;;10.30;99.90;;;;;;5038697;28;20045;-72
2023/06/02 01:37:30;;;;;;;17.38;2.83;;;10.30;99.90;;;;;;5021548;28;20049;-72
2023/06/02 01:39:57;;;;;;;17.70;2.97;;;10.30;99.90;;;;;;5018610;28;20053;-72
2023/06/02 01:42:23;;;;;;;13.93;2.92;;;10.30;99.90;;;;;;5019724;28;20053;-71
2023/06/02 01:44:50;;;;;;;15.82;3.33;;;10.30;99.90;;;;;;5021544;28;20049;-71
2023/06/02 01:47:16;;;;;;;17.98;3.20;;;10.20;99.90;;;;;;5018083;28;20080;-71
2023/06/02 01:49:41;;;;;;;18.13;2.60;;;10.30;99.90;;;;;;4999799;28;20149;-71
2023/06/02 01:52:07;;;;;;;17.98;2.78;;;10.30;99.90;;;;;;5016376;28;21276;-72
2023/06/02 01:54:33;;;;;;;21.35;3.45;;;10.30;99.90;;;;;;4996279;28;20042;-72
2023/06/02 01:56:58;;;;;;;19.95;2.75;;;10.20;99.90;;;;;;5013446;28;20037;-72
2023/06/02 01:59:25;;;;;;;22.10;3.30;;;10.20;99.90;;;;;;5008263;28;20179;-72
2023/06/02 02:01:51;;;;;;;25.17;3.10;;;10.20;99.90;;;;;;5016741;28;20675;-72
2023/06/02 02:04:17;;;;;;;15.48;2.85;;;10.20;99.90;;;;;;5011404;28;20053;-72
2023/06/02 02:06:49;;;;;;;18.05;2.92;;;10.20;99.90;;;;;;5015880;28;20115;-72
2023/06/02 02:09:15;;;;;;;16.40;2.55;;;10.20;99.90;;;;;;5016722;28;20059;-72
2023/06/02 02:11:41;;;;;;;16.85;3.33;;;10.20;99.90;;;;;;5016882;28;20053;-71
2023/06/02 02:14:06;;;;;;;13.85;2.83;;;10.20;99.90;;;;;;5010607;28;20111;-71
2023/06/02 02:16:32;;;;;;;18.90;3.50;;;10.20;99.90;;;;;;5016353;28;20056;-72
2023/06/02 02:18:58;;;;;;;20.60;3.17;;;10.20;99.90;;;;;;5009860;28;20053;-72
2023/06/02 02:21:28;;;;;;;14.18;2.58;;;10.40;99.90;;;;;;5013114;28;20076;-72
2023/06/02 02:23:54;;;;;;;18.90;2.67;;;10.20;99.90;;;;;;5011940;28;20060;-72
2023/06/02 02:26:20;;;;;;;17.40;3.40;;;10.20;99.90;;;;;;5011750;28;20048;-71
2023/06/02 02:28:47;;;;;;;17.77;2.80;;;10.20;99.90;;;;;;5011814;28;20084;-71
2023/06/02 02:31:13;;;;;;;18.50;2.80;;;10.20;99.90;;;;;;5013922;28;20049;-71
2023/06/02 02:33:38;;;;;;;27.15;3.70;;;10.20;99.90;;;;;;5010760;28;20037;-72
2023/06/02 02:36:04;;;;;;;12.32;2.47;;;10.20;99.90;;;;;;5013873;28;20501;-70
2023/06/02 02:38:30;;;;;;;22.27;2.80;;;10.20;99.90;;;;;;5014100;28;20075;-72
2023/06/02 02:40:56;;;;;;;19.30;3.22;;;10.20;99.90;;;;;;5013773;28;20145;-71
2023/06/02 02:43:22;;;;;;;19.05;3.95;;;10.20;99.90;;;;;;5014428;28;20152;-71
2023/06/02 02:45:47;;;;;;;17.95;2.70;;;10.20;99.90;;;;;;5019089;28;20042;-71
2023/06/02 02:48:13;;;;;;;23.50;3.33;;;10.20;99.90;;;;;;5019665;28;20046;-72
2023/06/02 02:50:39;;;;;;;16.15;2.97;;;10.20;99.90;;;;;;5033360;28;20520;-71
2023/06/02 02:53:05;;;;;;;16.10;2.95;;;10.20;99.90;;;;;;5010550;28;20057;-72
2023/06/02 02:55:32;;;;;;;19.05;2.88;;;10.20;99.90;;;;;;5011592;28;20037;-71
2023/06/02 02:58:01;;;;;;;18.45;3.00;;;10.20;99.90;;;;;;5018147;28;20140;-72
2023/06/02 03:00:27;;;;;;;14.23;2.60;;;10.20;99.90;;;;;;5020777;28;20148;-72
2023/06/02 03:02:55;;;;;;;19.75;2.95;;;10.20;99.90;;;;;;5017520;28;20128;-71
2023/06/02 03:05:22;;;;;;;24.15;3.53;;;10.20;99.90;;;;;;5016396;28;20219;-71
2023/06/02 03:07:49;;;;;;;20.27;3.45;;;10.20;99.90;;;;;;5015405;28;20060;-71
2023/06/02 03:10:15;;;;;;;19.83;3.85;;;10.20;99.90;;;;;;5017560;28;20033;-72
2023/06/02 03:12:41;;;;;;;25.15;4.00;;;10.20;99.90;;;;;;5014736;28;20410;-71
2023/06/02 03:15:07;;;;;;;23.38;3.60;;;10.20;99.90;;;;;;5013225;28;20053;-71
2023/06/02 03:17:32;;;;;;;18.90;3.78;;;10.30;99.90;;;;;;5000606;28;20554;-71
2023/06/02 03:19:58;;;;;;;21.77;3.20;;;10.20;99.90;;;;;;5015230;28;20049;-71
2023/06/02 03:22:24;;;;;;;15.23;2.72;;;10.20;99.90;;;;;;5013541;28;20041;-71
2023/06/02 03:24:50;;;;;;;16.98;3.45;;;10.30;99.90;;;;;;5017870;28;20037;-71
2023/06/02 03:27:16;;;;;;;20.27;3.25;;;10.30;99.90;;;;;;5019285;28;20686;-72
2023/06/02 03:29:45;;;;;;;25.50;2.97;;;10.30;99.90;;;;;;5016395;28;20049;-72
2023/06/02 03:32:12;;;;;;;17.23;3.50;;;10.30;99.90;;;;;;5011303;28;20497;-71
2023/06/02 03:34:39;;;;;;;20.80;3.30;;;10.30;99.90;;;;;;5013596;28;20033;-72
2023/06/02 03:37:08;;;;;;;27.65;4.03;;;10.30;99.90;;;;;;5019807;28;20080;-72
2023/06/02 03:39:33;;;;;;;22.17;3.15;;;10.30;99.90;;;;;;5015818;28;20073;-71
2023/06/02 03:42:00;;;;;;;28.98;4.60;;;10.30;99.90;;;;;;5018508;28;20085;-70
2023/06/02 03:44:25;;;;;;;25.17;3.42;;;10.40;99.90;;;;;;5018740;28;20122;-70
2023/06/02 03:46:51;;;;;;;19.67;3.33;;;10.40;99.90;;;;;;5019519;28;20477;-71
2023/06/02 03:49:17;;;;;;;17.38;3.28;;;10.30;99.90;;;;;;5019151;28;20076;-70
2023/06/02 03:51:43;;;;;;;16.05;2.70;;;10.40;99.90;;;;;;5016124;28;20081;-71
2023/06/02 03:54:09;;;;;;;21.10;3.58;;;10.40;99.90;;;;;;5014657;28;20156;-70
2023/06/02 03:56:35;;;;;;;18.25;2.80;;;10.40;99.90;;;;;;5020892;28;20125;-71
2023/06/02 03:59:01;;;;;;;19.58;3.08;;;10.40;99.90;;;;;;5007121;28;20700;-71
2023/06/02 04:01:27;;;;;;;17.65;3.55;;;10.40;99.90;;;;;;5007735;28;20049;-71
2023/06/02 04:03:53;;;;;;;19.58;3.50;;;10.40;99.90;;;;;;5012647;28;20132;-71
2023/06/02 04:06:19;;;;;;;16.63;3.00;;;10.40;99.90;;;;;;5030074;28;20053;-71
2023/06/02 04:08:46;;;;;;;17.90;3.78;;;10.50;99.90;;;;;;5007944;28;20045;-70
2023/06/02 04:11:12;;;;;;;26.15;3.25;;;10.50;99.90;;;;;;5009054;28;20045;-71
2023/06/02 04:13:38;;;;;;;18.98;3.50;;;10.50;99.90;;;;;;5012346;28;20038;-71
2023/06/02 04:16:04;;;;;;;25.58;3.30;;;10.50;99.90;;;;;;5013665;28;20076;-70
2023/06/02 04:18:31;;;;;;;17.48;3.90;;;10.50;99.90;;;;;;5009913;28;20042;-71
2023/06/02 04:20:57;;;;;;;22.23;3.80;;;10.50;99.90;;;;;;5026410;28;20049;-71
2023/06/02 04:23:23;;;;;;;18.20;3.28;;;10.50;99.90;;;;;;5013957;28;20103;-71
2023/06/02 04:25:49;;;;;;;18.05;3.30;;;10.50;99.90;;;;;;4997214;28;20037;-71
2023/06/02 04:28:15;;;;;;;18.13;3.28;;;10.50;99.90;;;;;;5027966;28;20056;-71
2023/06/02 04:30:42;;;;;;;16.00;3.40;;;10.60;99.90;;;;;;5008751;28;20054;-71
2023/06/02 04:33:08;;;;;;;23.02;3.50;;;10.60;99.90;;;;;;5008161;28;20425;-71
2023/06/02 04:35:35;;;;;;;16.60;2.92;;;10.60;99.90;;;;;;5013371;28;20045;-72
2023/06/02 04:38:01;;;;;;;22.88;3.20;;;10.60;99.90;;;;;;5015265;28;20053;-71
2023/06/02 04:40:26;;;;;;;20.38;2.80;;;10.60;99.90;;;;;;5017183;28;20049;-71
2023/06/02 04:42:52;;;;;;;13.20;3.00;;;10.60;99.90;;;;;;4999903;28;21088;-71
2023/06/02 04:45:20;;;;;;;22.67;3.53;;;10.60;99.90;;;;;;5016610;28;20047;-71
2023/06/02 04:47:46;;;;;;;17.20;3.35;;;10.60;99.90;;;;;;5019646;28;20060;-71
2023/06/02 04:50:13;;;;;;;25.65;3.53;;;10.70;99.90;;;;;;5017509;28;20409;-72
2023/06/02 04:52:40;;;;;;;21.98;3.17;;;10.70;99.90;;;;;;5014929;28;20045;-71
2023/06/02 04:55:11;;;;;;;20.50;3.53;;;10.70;99.90;;;;;;5014540;28;20592;-72
2023/06/02 04:57:37;;;;;;;20.90;3.03;;;10.70;99.90;;;;;;5018285;28;20609;-72
2023/06/02 05:00:06;;;;;;;18.98;3.20;;;10.70;99.90;;;;;;5011270;28;20045;-71
2023/06/02 05:02:32;;;;;;;20.08;3.53;;;10.70;99.90;;;;;;5016950;28;20180;-72
2023/06/02 05:04:58;;;;;;;17.98;3.50;;;10.70;99.90;;;;;;5014426;28;20528;-71
2023/06/02 05:07:24;;;;;;;21.05;3.40;;;10.80;99.90;;;;;;5017950;28;20042;-71
2023/06/02 05:09:50;;;;;;;20.40;2.92;;;10.80;99.90;;;;;;5010086;28;20136;-72
2023/06/02 05:12:18;;;;;;;29.27;4.00;;;10.80;99.90;;;;;;5017611;28;20048;-72
2023/06/02 05:14:45;;;;;;;18.77;3.25;;;10.80;99.90;;;;;;4996752;28;21618;-71
2023/06/02 05:17:11;;;;;;;22.10;4.05;;;10.80;99.90;;;;;;5024516;28;20125;-72
2023/06/02 05:19:41;;;;;;;23.77;4.22;;;10.90;99.90;;;;;;5015187;28;20049;-71
2023/06/02 05:22:07;;;;;;;24.15;3.83;;;10.90;99.90;;;;;;5022145;28;20060;-71
2023/06/02 05:24:32;;;;;;;22.33;3.67;;;10.90;99.90;;;;;;5023116;28;20042;-72
2023/06/02 05:26:58;;;;;;;24.13;3.15;;;10.90;99.90;;;;;;5026767;28;20421;-72
2023/06/02 05:29:24;;;;;;;26.17;3.88;;;11.00;99.90;;;;;;5019771;28;20161;-71
2023/06/02 05:31:49;;;;;;;23.98;3.92;;;11.00;99.90;;;;;;5008541;28;20042;-72
2023/06/02 05:34:15;;;;;;;27.27;3.08;;;11.00;99.90;;;;;;5016770;28;20106;-71
2023/06/02 05:36:40;;;;;;;26.98;3.65;;;11.00;99.90;;;;;;5012318;28;20235;-71
2023/06/02 05:39:06;;;;;;;24.25;4.22;;;11.00;99.90;;;;;;5023315;28;20053;-71
2023/06/02 05:41:32;;;;;;;23.40;4.10;;;11.10;99.90;;;;;;5022827;28;20541;-71
2023/06/02 05:43:57;;;;;;;26.08;3.45;;;11.10;99.90;;;;;;5019585;28;20046;-71
2023/06/02 05:46:23;;;;;;;27.50;4.10;;;11.10;99.90;;;;;;5011757;28;20490;-71
2023/06/02 05:48:49;;;;;;;20.77;3.75;;;11.10;99.90;;;;;;5012831;28;20272;-71
2023/06/02 05:51:15;;;;;;;21.80;3.78;;;11.20;99.90;;;;;;5007533;28;20058;-71
2023/06/02 05:53:41;;;;;;;24.75;3.90;;;11.20;99.90;;;;;;5013178;28;20144;-71
2023/06/02 05:56:06;;;;;;;26.55;3.67;;;11.20;99.90;;;;;;5013001;28;20129;-72
2023/06/02 05:58:39;;;;;;;28.48;4.18;;;11.30;99.90;;;;;;5014016;28;20069;-71
2023/06/02 06:01:05;;;;;;;29.90;4.55;;;11.30;99.90;;;;;;5014189;28;20873;-72
2023/06/02 06:03:30;;;;;;;19.35;3.95;;;11.30;99.90;;;;;;5012384;28;20041;-73
2023/06/02 06:05:56;;;;;;;22.05;4.07;;;11.40;99.90;;;;;;4997109;28;21338;-72
2023/06/02 06:08:22;;;;;;;27.30;4.82;;;11.40;99.90;;;;;;5010529;28;20072;-73
2023/06/02 06:10:48;;;;;;;24.50;4.50;;;11.50;99.90;;;;;;5015763;28;20057;-72
2023/06/02 06:13:13;;;;;;;20.38;4.13;;;11.50;99.90;;;;;;5015131;28;20124;-73
2023/06/02 06:15:39;;;;;;;22.52;5.03;;;11.50;99.90;;;;;;5015841;28;20034;-73
2023/06/02 06:18:05;;;;;;;33.53;4.50;;;11.60;99.90;;;;;;5013187;28;20709;-72
2023/06/02 06:20:30;;;;;;;21.10;4.40;;;11.60;99.90;;;;;;5014566;28;20544;-71
2023/06/02 06:22:56;;;;;;;29.40;4.15;;;11.60;99.90;;;;;;5016512;28;20038;-72
2023/06/02 06:25:22;;;;;;;24.77;4.65;;;11.70;99.90;;;;;;5017222;28;20041;-71
2023/06/02 06:27:48;;;;;;;30.42;5.82;;;11.80;99.90;;;;;;5015948;28;20539;-71
2023/06/02 06:30:13;;;;;;;25.73;4.75;;;11.80;99.90;;;;;;5013863;28;20501;-71
2023/06/02 06:32:39;;;;;;;20.85;4.30;;;11.80;99.90;;;;;;5017671;28;20482;-72
2023/06/02 06:35:06;;;;;;;22.38;3.90;;;11.90;99.90;;;;;;5019888;28;20133;-71
2023/06/02 06:37:31;;;;;;;27.67;4.53;;;11.90;99.90;;;;;;5015363;28;20124;-72
2023/06/02 06:39:57;;;;;;;32.55;4.72;;;12.00;99.90;;;;;;5017276;28;20504;-72
2023/06/02 06:42:23;;;;;;;24.60;4.72;;;12.00;99.90;;;;;;5012435;28;22133;-71
2023/06/02 06:44:51;;;;;;;26.48;3.95;;;12.00;99.90;;;;;;5010683;28;20037;-72
2023/06/02 06:47:20;;;;;;;33.10;5.05;;;12.10;99.90;;;;;;5016949;28;20063;-73
2023/06/02 06:49:46;;;;;;;28.83;5.00;;;12.10;99.90;;;;;;5012873;28;20041;-72
2023/06/02 06:52:12;;;;;;;26.88;4.55;;;12.20;99.90;;;;;;5017954;28;20047;-72
2023/06/02 06:54:37;;;;;;;26.77;4.60;;;12.30;99.90;;;;;;5016345;28;20047;-72
2023/06/02 06:57:04;;;;;;;23.05;4.90;;;12.30;99.90;;;;;;5010279;28;20111;-71
2023/06/02 06:59:29;;;;;;;24.50;4.13;;;12.30;99.90;;;;;;5013557;28;20049;-72
2023/06/02 07:01:55;;;;;;;29.08;4.65;;;12.40;99.90;;;;;;5016560;28;20067;-72
2023/06/02 07:04:21;;;;;;;28.13;4.90;;;12.40;99.90;;;;;;5016733;28;20041;-72
2023/06/02 07:06:47;;;;;;;27.85;4.70;;;12.70;99.90;;;;;;5012884;28;20042;-72
2023/06/02 07:09:12;;;;;;;26.70;3.92;;;12.50;99.90;;;;;;5013035;28;20151;-72
2023/06/02 07:11:38;;;;;;;25.00;4.68;;;12.60;99.90;;;;;;5017207;28;20052;-72
2023/06/02 07:14:04;;;;;;;23.58;4.22;;;12.70;99.90;;;;;;5024154;28;20049;-72
2023/06/02 07:16:30;;;;;;;28.52;4.85;;;12.80;99.90;;;;;;5016452;28;20673;-71
2023/06/02 07:18:56;;;;;;;26.50;4.97;;;13.10;99.90;;;;;;5014309;28;20051;-72
2023/06/02 07:21:21;;;;;;;20.73;3.90;;;13.10;99.90;;;;;;5011621;28;20048;-72
2023/06/02 07:23:47;;;;;;;21.02;3.47;;;13.20;99.90;;;;;;4993229;28;20041;-73
2023/06/02 07:26:13;;;;;;;29.00;4.82;;;13.30;99.90;;;;;;5010011;28;21538;-72
2023/06/02 07:28:39;;;;;;;24.33;3.60;;;13.30;99.90;;;;;;5005725;28;20048;-73
2023/06/02 07:31:05;;;;;;;20.10;3.75;;;13.40;99.90;;;;;;5020131;28;20608;-72
2023/06/02 07:33:30;;;;;;;22.70;4.00;;;13.40;99.90;;;;;;5018680;28;20045;-73
2023/06/02 07:35:56;;;;;;;23.38;4.63;;;13.40;99.90;;;;;;5020864;28;20049;-72
2023/06/02 07:38:23;;;;;;;24.05;3.72;;;13.40;99.90;;;;;;5023522;28;20041;-72
2023/06/02 07:40:48;;;;;;;20.60;4.03;;;13.50;99.90;;;;;;5024923;28;20045;-72
2023/06/02 07:43:14;;;;;;;18.73;3.75;;;13.60;99.90;;;;;;5024482;28;20060;-72
2023/06/02 07:45:40;;;;;;;19.45;3.53;;;13.80;99.90;;;;;;5015112;28;20069;-72
2023/06/02 07:48:05;;;;;;;19.70;4.00;;;13.80;99.90;;;;;;5006925;28;20052;-72
2023/06/02 07:50:31;;;;;;;22.83;3.45;;;13.90;99.90;;;;;;5013366;28;20060;-72
2023/06/02 07:52:57;;;;;;;18.10;3.20;;;14.10;99.90;;;;;;5022065;28;20061;-72
2023/06/02 07:55:24;;;;;;;19.33;4.22;;;14.20;99.90;;;;;;5016324;28;20035;-72
2023/06/02 07:57:51;;;;;;;23.30;4.40;;;14.40;99.90;;;;;;5013420;28;20532;-72
2023/06/02 08:00:18;;;;;;;20.70;3.67;;;14.40;99.90;;;;;;5015914;28;20293;-72
2023/06/02 08:02:46;;;;;;;20.73;4.20;;;14.40;99.90;;;;;;5017302;28;20162;-72
2023/06/02 08:05:13;;;;;;;17.20;3.35;;;14.50;99.90;;;;;;5014922;28;20068;-72
2023/06/02 08:07:39;;;;;;;18.85;3.17;;;14.60;99.90;;;;;;5014697;28;20049;-73
2023/06/02 08:10:06;;;;;;;18.15;3.03;;;14.70;99.90;;;;;;5003573;28;20049;-71
2023/06/02 08:12:32;;;;;;;18.10;3.00;;;14.80;99.90;;;;;;5018432;28;20124;-72
2023/06/02 08:14:58;;;;;;;21.90;3.45;;;14.90;99.90;;;;;;5019254;28;20054;-71
2023/06/02 08:17:29;;;;;;;19.88;3.30;;;15.10;99.90;;;;;;5012191;28;20064;-72
2023/06/02 08:19:59;;;;;;;13.85;2.83;;;15.20;99.90;;;;;;4998237;28;20049;-71
2023/06/02 08:22:27;;;;;;;13.52;2.55;;;15.30;99.90;;;;;;5024545;28;20054;-72
2023/06/02 08:24:56;;;;;;;10.93;2.28;;;15.40;99.90;;;;;;5021123;28;20044;-72
2023/06/02 08:27:23;;;;;;;11.00;2.42;;;15.50;99.90;;;;;;5018534;28;20091;-72
2023/06/02 08:29:49;;;;;;;13.48;2.47;;;15.60;99.90;;;;;;5014044;28;20136;-72
2023/06/02 08:32:19;;;;;;;12.13;2.30;;;15.60;99.90;;;;;;5009666;28;20042;-72
2023/06/02 08:34:47;;;;;;;10.55;2.95;;;15.80;99.90;;;;;;5005428;28;20090;-72
2023/06/02 08:37:16;;;;;;;12.77;2.20;;;15.90;99.90;;;;;;5001417;28;20065;-72
2023/06/02 08:39:46;;;;;;;10.95;2.28;;;16.00;99.90;;;;;;4999050;28;20043;-73
2023/06/02 08:42:13;;;;;;;13.35;1.98;;;16.10;99.90;;;;;;5009829;28;20549;-72
2023/06/02 08:44:41;;;;;;;8.57;1.98;;;16.20;99.90;;;;;;5005766;28;20041;-72
2023/06/02 08:47:11;;;;;;;12.95;2.60;;;16.30;99.90;;;;;;4990783;28;20168;-72
2023/06/02 08:49:46;;;;;;;12.87;2.40;;;16.30;99.90;;;;;;5011248;28;20088;-72
2023/06/02 08:52:23;;;;;;;9.65;2.25;;;16.30;99.90;;;;;;5005743;28;20315;-71
2023/06/02 08:54:50;;;;;;;9.23;2.10;;;16.40;99.90;;;;;;5006386;28;20045;-72
2023/06/02 08:57:16;;;;;;;8.52;1.85;;;16.40;99.90;;;;;;5012637;28;20048;-73
2023/06/02 08:59:44;;;;;;;11.73;2.45;;;16.40;99.90;;;;;;5041775;28;20041;-71
2023/06/02 09:02:10;;;;;;;10.20;2.00;;;16.50;99.90;;;;;;5023260;28;20620;-73
2023/06/02 09:04:36;;;;;;;6.88;1.65;;;16.60;99.90;;;;;;5014809;28;20472;-73
2023/06/02 09:07:13;;;;;;;6.88;1.85;;;16.60;99.90;;;;;;5018748;28;20041;-72
2023/06/02 09:09:44;;;;;;;8.52;1.65;;;16.70;99.90;;;;;;5003576;28;20672;-71
2023/06/02 09:12:10;;;;;;;;;;;16.70;99.90;;;;;;5031967;28;20046;-72
2023/06/02 09:14:37;;;;;;;10.23;1.70;;;16.70;99.90;;;;;;4999296;28;20422;-72
2023/06/02 09:17:03;;;;;;;11.27;2.10;;;16.70;99.90;;;;;;5018494;28;20125;-72
2023/06/02 09:19:52;;;;;;;9.70;1.80;;;16.80;99.90;;;;;;5024852;28;20037;-72
2023/06/02 09:22:18;;;;;;;9.32;1.63;;;16.90;99.90;;;;;;5019088;28;20041;-72
2023/06/02 09:24:44;;;;;;;11.48;2.22;;;17.00;99.90;;;;;;5019650;28;20045;-73
2023/06/02 09:27:14;;;;;;;7.90;1.77;;;17.00;99.90;;;;;;5035586;28;20128;-72
2023/06/02 09:29:41;;;;;;;6.93;1.83;;;17.10;99.90;;;;;;5012070;28;20061;-72
2023/06/02 09:32:14;;;;;;;9.18;1.40;;;17.10;99.90;;;;;;5016158;28;20054;-71
2023/06/02 09:34:41;;;;;;;8.38;1.70;;;17.20;99.90;;;;;;5015274;28;20064;-72
2023/06/02 09:37:15;;;;;;;7.65;1.65;;;17.20;99.90;;;;;;5014188;28;20073;-71
2023/06/02 09:39:48;;;;;;;7.97;2.00;;;17.20;99.90;;;;;;5007468;28;20029;-72
2023/06/02 09:42:15;;;;;;;10.98;1.92;;;17.20;99.90;;;;;;5015292;28;20053;-71
2023/06/02 09:45:04;;;;;;;8.90;1.58;;;17.30;99.90;;;;;;5019033;28;20049;-71
2023/06/02 09:47:40;;;;;;;9.20;2.28;;;17.40;99.90;;;;;;5019360;28;20126;-71
2023/06/02 09:50:07;;;;;;;6.15;1.58;;;17.40;99.90;;;;;;5015528;28;20085;-72
2023/06/02 09:52:34;;;;;;;5.53;1.35;;;17.40;99.90;;;;;;5035514;28;20406;-72
2023/06/02 09:55:00;;;;;;;10.05;1.58;;;17.40;99.90;;;;;;5029229;28;20041;-72
2023/06/02 09:57:26;;;;;;;5.07;1.23;;;17.40;99.90;;;;;;5007304;28;20516;-72
2023/06/02 09:59:52;;;;;;;7.30;1.67;;;17.40;99.90;;;;;;5018964;28;20134;-72
2023/06/02 10:02:18;;;;;;;5.20;1.40;;;17.30;99.90;;;;;;5020682;28;20484;-73
2023/06/02 10:04:46;;;;;;;5.38;1.70;;;17.30;99.90;;;;;;5027283;28;20037;-72
2023/06/02 10:07:48;;;;;;;4.45;1.25;;;17.30;99.90;;;;;;5021054;28;21655;-72
2023/06/02 10:10:35;;;;;;;4.40;1.05;;;17.30;99.90;;;;;;5036805;28;20050;-72
2023/06/02 10:13:24;;;;;;;3.53;1.20;;;17.40;99.90;;;;;;5020232;28;20049;-74
2023/06/02 10:16:12;;;;;;;7.15;1.50;;;17.40;99.90;;;;;;5021359;28;20042;-73
2023/06/02 10:19:11;;;;;;;6.60;1.40;;;17.50;99.90;;;;;;5021084;28;20038;-71
2023/06/02 10:21:52;;;;;;;4.60;1.33;;;17.50;99.90;;;;;;5015052;28;20056;-72
2023/06/02 10:24:27;;;;;;;3.47;1.00;;;17.50;99.90;;;;;;5024375;28;20049;-73
2023/06/02 10:27:32;;;;;;;7.88;1.48;;;17.50;99.90;;;;;;5021823;28;20056;-73
2023/06/02 10:29:58;;;;;;;4.00;1.13;;;17.50;99.90;;;;;;5018779;28;20038;-73
2023/06/02 10:32:27;;;;;;;3.88;0.93;;;17.50;99.90;;;;;;5020346;28;20153;-72
2023/06/02 10:34:56;;;;;;;4.30;1.20;;;17.60;99.90;;;;;;5022129;28;20434;-72
2023/06/02 10:37:23;;;;;;;4.75;1.00;;;17.60;99.90;;;;;;5020407;28;20164;-73
2023/06/02 10:39:56;;;;;;;3.63;1.15;;;17.70;99.90;;;;;;5020143;28;20041;-73
2023/06/02 10:42:27;;;;;;;5.22;1.08;;;17.60;98.90;;;;;;5021128;28;20045;-74
2023/06/02 10:45:13;;;;;;;5.28;1.20;;;17.70;97.80;;;;;;5024776;28;20040;-72
2023/06/02 10:47:38;;;;;;;6.38;1.38;;;17.70;98.50;;;;;;5007788;28;20124;-73
2023/06/02 10:50:06;;;;;;;5.85;1.20;;;17.70;96.20;;;;;;5017350;28;20077;-72
2023/06/02 10:52:53;;;;;;;4.38;1.10;;;17.60;96.30;;;;;;5018527;28;20037;-73
2023/06/02 10:55:18;;;;;;;6.43;1.25;;;17.70;96.80;;;;;;5014285;28;20058;-72
2023/06/02 10:58:12;;;;;;;5.88;1.10;;;17.70;96.60;;;;;;5021129;28;20111;-72
2023/06/02 11:00:44;;;;;;;5.15;1.20;;;17.70;96.70;;;;;;5017813;28;20049;-73
2023/06/02 11:03:16;;;;;;;4.03;1.20;;;17.80;97.20;;;;;;5015931;28;20422;-73
2023/06/02 11:05:42;;;;;;;5.03;1.15;;;17.80;98.30;;;;;;5020974;28;20057;-73
2023/06/02 11:08:11;;;;;;;3.88;1.17;;;17.80;96.00;;;;;;5014451;28;20057;-73
2023/06/02 11:10:56;;;;;;;5.05;1.13;;;17.80;95.90;;;;;;5012744;28;20062;-73
2023/06/02 11:13:27;;;;;;;8.35;1.83;;;17.80;97.20;;;;;;5002401;28;20132;-72
2023/06/02 11:15:58;;;;;;;6.13;1.60;;;17.80;98.80;;;;;;5016293;28;20095;-74
2023/06/02 11:18:32;;;;;;;6.55;1.23;;;17.80;99.20;;;;;;5020952;28;20060;-72
2023/06/02 11:21:17;;;;;;;6.97;1.80;;;17.90;99.90;;;;;;5014322;28;20053;-73
2023/06/02 11:23:43;;;;;;;6.97;2.03;;;17.90;99.90;;;;;;5022573;28;20049;-72
2023/06/02 11:26:17;;;;;;;6.85;1.75;;;17.90;99.90;;;;;;5022865;28;20324;-72
2023/06/02 11:28:43;;;;;;;8.98;1.40;;;18.00;99.90;;;;;;5007668;28;21356;-72
2023/06/02 11:31:17;;;;;;;5.32;1.40;;;18.00;99.90;;;;;;5026852;28;20039;-73
2023/06/02 11:33:48;;;;;;;6.68;1.85;;;18.00;99.90;;;;;;5015213;28;20045;-73
2023/06/02 11:36:15;;;;;;;9.95;2.35;;;18.00;99.90;;;;;;5016302;28;20797;-72
2023/06/02 11:38:42;;;;;;;7.32;1.73;;;18.00;99.90;;;;;;5017285;28;20045;-72
2023/06/02 11:41:12;;;;;;;7.72;1.77;;;18.10;99.90;;;;;;5015452;28;20056;-72
2023/06/02 11:43:39;;;;;;;8.02;1.55;;;18.10;99.90;;;;;;5019761;28;20045;-73
2023/06/02 11:46:09;;;;;;;5.38;1.58;;;18.10;99.90;;;;;;4999085;28;20041;-73
2023/06/02 11:48:38;;;;;;;6.67;1.90;;;18.20;99.90;;;;;;5013238;28;20139;-72
2023/06/02 11:51:04;;;;;;;8.45;2.17;;;18.20;99.90;;;;;;5035263;28;20299;-73
2023/06/02 11:53:30;;;;;;;7.88;1.85;;;18.10;99.90;;;;;;5015187;28;20128;-73
2023/06/02 11:55:56;;;;;;;5.50;1.65;;;18.20;99.90;;;;;;4999381;28;20207;-72
2023/06/02 11:58:23;;;;;;;6.18;1.98;;;18.20;99.90;;;;;;5014413;28;20045;-73
2023/06/02 12:00:51;;;;;;;5.47;1.80;;;18.20;99.90;;;;;;5017525;28;20360;-72
2023/06/02 12:03:17;;;;;;;12.60;2.33;;;18.20;99.90;;;;;;5009776;28;20053;-73
2023/06/02 12:05:46;;;;;;;10.18;2.30;;;18.30;99.90;;;;;;5015093;28;20055;-73
2023/06/02 12:08:24;;;;;;;8.15;2.28;;;18.40;99.90;;;;;;5019131;28;20094;-74
2023/06/02 12:10:51;;;;;;;7.72;2.00;;;18.40;99.90;;;;;;5020797;28;20394;-73
2023/06/02 12:13:24;;;;;;;9.43;2.00;;;18.40;99.90;;;;;;5022815;28;20037;-73
2023/06/02 12:15:49;;;;;;;8.25;2.40;;;18.40;99.90;;;;;;5021989;28;20257;-73
2023/06/02 12:18:29;;;;;;;12.52;2.78;;;18.50;99.90;;;;;;5034346;28;20076;-73
2023/06/02 12:20:55;;;;;;;6.70;2.30;;;18.50;99.90;;;;;;5002953;28;20053;-73
2023/06/02 12:23:21;;;;;;;9.45;2.08;;;18.40;99.90;;;;;;5017680;28;20137;-72
2023/06/02 12:25:55;;;;;;;5.93;1.83;;;18.40;99.90;;;;;;5016437;28;20065;-72
2023/06/02 12:28:21;;;;;;;11.07;2.55;;;18.30;99.90;;;;;;5014099;28;20056;-72
2023/06/02 12:30:49;;;;;;;8.55;2.40;;;18.40;99.90;;;;;;5003441;28;20384;-67
2023/06/02 12:33:15;;;;;;;12.95;2.50;;;18.20;99.90;;;;;;5015304;28;20051;-68
2023/06/02 12:35:41;;;;;;;9.15;2.60;;;18.20;99.90;;;;;;5017199;28;20128;-67
2023/06/02 12:38:08;;;;;;;11.00;2.90;;;18.20;99.90;;;;;;5020102;28;20088;-68
2023/06/02 12:40:38;;;;;;;9.75;2.78;;;18.20;99.90;;;;;;5015300;28;20053;-67
2023/06/02 12:43:04;;;;;;;9.65;2.70;;;18.20;99.90;;;;;;5015263;28;20470;-67
2023/06/02 12:45:30;;;;;;;11.10;3.30;;;18.20;99.90;;;;;;5015514;28;20080;-67